Houston, Texas
Traffic Map
Current Weather Conditions
Houston, Texas
Broken Clouds
Broken Clouds
80°
Feels Like: 86°
Wind Chill: 80° Ceiling: 25000
Heat Index: 86° Visibility: 9mi
Dew Point: 78° Wind: 6mph
Humidity: 94% Direction: 150° (SSE)
Pressure: 30.07in Gusts: 0mph
Raw Report DataKIAH 051253Z 15005KT 9SM SCT020 BKN250 27/26 A3007 RMK AO2 SLP179 T02670256
Traffic Incident Summary
Active as of:
Severity:
Category:
InformationThere was an issue retrieving the traffic information for this location. Please try a different location or try again shortly.
Advertisements
Track Severe Weather on mobile